createdAt,value
2019-02-19T00:00:32.794Z,30.30
2019-02-19T00:03:06.461Z,33.77
2019-02-19T00:05:40.264Z,31.40
2019-02-19T00:08:13.661Z,30.43
2019-02-19T00:10:46.754Z,30.57
2019-02-19T00:13:19.931Z,33.53
2019-02-19T00:26:29.014Z,28.80
2019-02-19T00:29:21.078Z,29.63
2019-02-19T00:32:13.674Z,31.80
2019-02-19T00:34:47.132Z,28.50
2019-02-19T00:37:20.926Z,30.87
2019-02-19T00:39:54.620Z,30.43
2019-02-19T00:42:28.362Z,27.30
2019-02-19T00:45:01.801Z,29.00
2019-02-19T00:47:36.184Z,33.10
2019-02-19T00:50:27.697Z,36.60
2019-02-19T00:53:18.282Z,33.53
2019-02-19T00:55:51.568Z,29.17
2019-02-19T00:58:25.411Z,33.37
2019-02-19T01:00:59.888Z,34.27
2019-02-19T01:03:33.564Z,30.83
2019-02-19T01:06:06.845Z,29.77
2019-02-19T01:08:57.159Z,36.17
2019-02-19T01:11:30.993Z,31.10
2019-02-19T01:14:05.669Z,31.60
2019-02-19T01:16:38.771Z,27.77
2019-02-19T01:19:30.363Z,30.43
2019-02-19T01:22:15.714Z,29.83
2019-02-19T01:24:47.770Z,28.97
2019-02-19T01:27:22.296Z,33.93
2019-02-19T01:29:56.244Z,31.73
2019-02-19T01:32:48.498Z,36.63
2019-02-19T01:35:22.278Z,29.37
2019-02-19T01:37:55.798Z,29.83
2019-02-19T01:40:30.626Z,30.13
2019-02-19T01:43:15.590Z,30.07
2019-02-19T01:46:09.772Z,31.33
2019-02-19T01:48:43.517Z,30.67
2019-02-19T01:51:17.508Z,32.40
2019-02-19T01:53:51.214Z,35.80
2019-02-19T01:56:43.107Z,32.87
2019-02-19T01:59:34.010Z,31.03
2019-02-19T02:02:07.264Z,31.07
2019-02-19T02:04:41.695Z,29.70
2019-02-19T02:07:33.698Z,32.30
2019-02-19T02:10:21.429Z,26.07
2019-02-19T02:12:54.895Z,32.27
2019-02-19T02:15:28.609Z,32.43
2019-02-19T02:18:02.051Z,29.13
2019-02-19T02:20:35.553Z,29.23
2019-02-19T02:23:09.351Z,27.27
2019-02-19T02:25:43.094Z,27.23
2019-02-19T02:28:17.248Z,28.10
2019-02-19T02:30:51.949Z,28.97
2019-02-19T02:33:37.724Z,34.00
2019-02-19T02:36:11.595Z,28.70
2019-02-19T02:38:45.290Z,29.67
2019-02-19T02:41:19.138Z,27.47
2019-02-19T02:43:53.432Z,28.30
2019-02-19T02:46:39.385Z,26.03
2019-02-19T02:49:13.209Z,27.43
2019-02-19T02:51:47.417Z,31.10
2019-02-19T02:54:38.989Z,27.33
2019-02-19T02:57:26.857Z,28.10
2019-02-19T03:00:00.339Z,27.13
2019-02-19T03:02:34.402Z,24.50
2019-02-19T03:05:07.981Z,26.10
2019-02-19T03:07:49.741Z,25.73
2019-02-19T03:10:23.733Z,25.17
2019-02-19T03:13:16.502Z,26.03
2019-02-19T03:15:50.535Z,23.90
2019-02-19T03:18:24.713Z,24.80
2019-02-19T03:21:17.414Z,30.50
2019-02-19T03:24:02.773Z,26.73
2019-02-19T03:26:48.380Z,25.17
2019-02-19T03:29:33.690Z,22.63
2019-02-19T03:32:18.798Z,24.73
2019-02-19T03:35:11.372Z,23.70
2019-02-19T03:37:45.247Z,30.40
2019-02-19T03:40:19.230Z,26.07
2019-02-19T03:42:53.022Z,25.50
2019-02-19T03:45:38.442Z,29.10
2019-02-19T03:48:23.818Z,32.97
2019-02-19T03:51:15.622Z,28.13
2019-02-19T03:53:50.182Z,30.00
2019-02-19T03:56:49.280Z,35.27
2019-02-19T03:59:23.034Z,35.57
2019-02-19T04:01:56.755Z,33.30
2019-02-19T04:04:31.846Z,31.63
2019-02-19T04:07:05.045Z,35.27
2019-02-19T04:09:38.764Z,29.90
2019-02-19T04:12:13.149Z,36.03
2019-02-19T04:14:46.617Z,35.47
2019-02-19T04:17:20.232Z,32.97
2019-02-19T04:19:53.996Z,39.80
2019-02-19T04:22:28.074Z,42.13
2019-02-19T04:25:21.280Z,36.13
2019-02-19T04:27:55.291Z,39.67
2019-02-19T04:30:30.455Z,40.47
2019-02-19T04:33:24.716Z,40.80
2019-02-19T04:36:16.542Z,48.10
2019-02-19T04:38:50.685Z,48.10
2019-02-19T04:41:24.798Z,51.70
2019-02-19T04:44:17.093Z,49.43
2019-02-19T04:47:08.645Z,55.17
2019-02-19T04:49:54.946Z,59.87
2019-02-19T04:52:30.072Z,57.17
2019-02-19T05:05:49.371Z,60.97
2019-02-19T05:19:12.972Z,65.33
2019-02-19T05:21:47.041Z,55.57
2019-02-19T05:24:36.009Z,64.03
2019-02-19T05:27:21.645Z,64.10
2019-02-19T05:30:07.878Z,61.40
2019-02-19T05:32:55.072Z,59.57
2019-02-19T05:35:29.164Z,64.63
2019-02-19T05:38:02.939Z,62.33
2019-02-19T05:40:36.814Z,61.23
2019-02-19T05:43:22.378Z,66.87
2019-02-19T05:45:56.238Z,67.37
2019-02-19T05:48:41.797Z,66.70
2019-02-19T05:51:17.268Z,65.10
2019-02-19T05:54:03.887Z,68.73
2019-02-19T05:56:37.641Z,72.97
2019-02-19T05:59:29.275Z,65.47
2019-02-19T06:02:03.778Z,71.27
2019-02-19T06:04:55.146Z,71.40
2019-02-19T06:07:40.684Z,70.87
2019-02-19T06:10:14.455Z,72.47
2019-02-19T06:12:48.756Z,68.97
2019-02-19T06:15:22.516Z,73.70
2019-02-19T06:17:56.646Z,76.43
2019-02-19T06:20:30.648Z,63.13
2019-02-19T06:23:15.399Z,77.13
2019-02-19T06:26:07.371Z,70.27
2019-02-19T06:28:59.170Z,76.17
2019-02-19T06:31:50.255Z,71.20
2019-02-19T06:34:43.733Z,73.70
2019-02-19T06:37:36.712Z,70.83
2019-02-19T06:40:23.371Z,76.03
2019-02-19T06:42:59.028Z,74.20
2019-02-19T06:56:07.618Z,65.37
2019-02-19T06:58:56.012Z,68.87
2019-02-19T07:02:02.704Z,63.53
2019-02-19T07:04:39.818Z,67.40
2019-02-19T07:07:25.892Z,64.00
2019-02-19T07:10:16.860Z,60.53
2019-02-19T07:13:05.448Z,53.93
2019-02-19T07:26:21.501Z,50.43
2019-02-19T07:28:55.365Z,49.60
2019-02-19T07:31:29.926Z,43.60
2019-02-19T07:34:22.464Z,44.37
2019-02-19T07:36:56.606Z,44.47
2019-02-19T07:39:30.372Z,46.50
2019-02-19T07:42:05.845Z,42.80
2019-02-19T07:44:58.713Z,41.73
2019-02-19T07:47:32.614Z,43.93
2019-02-19T07:50:07.117Z,45.60
2019-02-19T07:52:59.074Z,43.47
2019-02-19T07:55:33.032Z,39.33
2019-02-19T08:08:43.014Z,48.00
2019-02-19T08:11:29.323Z,41.87
2019-02-19T08:14:03.364Z,42.77
2019-02-19T08:16:37.507Z,44.33
2019-02-19T08:19:25.827Z,42.50
2019-02-19T08:22:18.152Z,43.97
2019-02-19T08:35:36.630Z,43.17
2019-02-19T08:38:28.010Z,49.23
2019-02-19T08:41:02.414Z,42.47
2019-02-19T08:43:36.161Z,39.73
2019-02-19T08:46:24.830Z,41.50
2019-02-19T08:49:18.842Z,37.47
2019-02-19T08:52:09.284Z,45.30
2019-02-19T08:55:05.076Z,40.73
2019-02-19T08:58:05.812Z,41.87
2019-02-19T09:00:43.844Z,41.67
2019-02-19T09:03:17.542Z,41.63
2019-02-19T09:05:50.687Z,40.73
2019-02-19T09:08:40.902Z,36.10
2019-02-19T09:11:15.072Z,36.93
2019-02-19T09:14:06.958Z,38.70
2019-02-19T09:16:52.427Z,39.70
2019-02-19T09:19:42.962Z,39.97
2019-02-19T09:22:17.612Z,39.10
2019-02-19T09:24:51.360Z,44.97
2019-02-19T09:27:25.126Z,38.43
2019-02-19T09:29:58.656Z,32.47
2019-02-19T09:32:32.051Z,37.40
2019-02-19T09:35:06.419Z,43.00
2019-02-19T09:37:50.899Z,38.60
2019-02-19T10:07:21.845Z,31.67
2019-02-19T10:09:55.079Z,33.83
2019-02-19T10:12:29.176Z,34.43
2019-02-19T10:15:21.386Z,41.53
2019-02-19T10:17:54.931Z,30.43
2019-02-19T10:31:11.804Z,35.53
2019-02-19T10:33:44.942Z,32.47
2019-02-19T10:36:18.383Z,34.93
2019-02-19T10:38:52.204Z,33.20
2019-02-19T10:41:25.575Z,31.97
2019-02-19T10:43:59.001Z,35.43
2019-02-19T10:46:33.029Z,34.03
2019-02-19T10:49:06.153Z,27.50
2019-02-19T10:51:51.887Z,35.97
2019-02-19T10:54:25.693Z,35.17
2019-02-19T10:56:59.595Z,31.60
2019-02-19T11:18:28.152Z,31.50
2019-02-19T11:20:56.975Z,31.23
2019-02-19T11:23:30.897Z,28.27
2019-02-19T11:26:05.303Z,30.93
2019-02-19T11:28:41.084Z,26.83
2019-02-19T11:31:14.914Z,26.97
2019-02-19T11:33:48.691Z,24.80
2019-02-19T11:36:22.181Z,27.07
2019-02-19T11:38:55.949Z,26.67
2019-02-19T11:57:41.055Z,28.10
2019-02-19T12:00:17.724Z,30.17
2019-02-19T12:02:51.156Z,24.70
2019-02-19T12:05:24.583Z,29.97
2019-02-19T12:07:58.372Z,25.10
2019-02-19T12:10:32.146Z,25.63
2019-02-19T12:13:05.385Z,23.97
2019-02-19T12:15:39.172Z,23.87
2019-02-19T12:18:12.797Z,26.67
2019-02-19T12:20:46.473Z,27.33
2019-02-19T12:23:20.524Z,21.93
2019-02-19T12:26:05.097Z,22.03
2019-02-19T12:28:38.891Z,27.90
2019-02-19T13:00:23.944Z,26.80
2019-02-19T13:02:57.683Z,36.90
2019-02-19T13:05:31.145Z,28.43
2019-02-19T13:08:04.897Z,24.93
2019-02-19T13:10:38.672Z,24.07
2019-02-19T13:13:12.462Z,23.60
2019-02-19T13:15:45.898Z,22.17
2019-02-19T13:18:19.706Z,19.57
2019-02-19T13:20:53.127Z,21.10
2019-02-19T13:23:27.022Z,26.70
2019-02-19T13:26:01.252Z,21.90
2019-02-19T13:55:41.464Z,17.03
2019-02-19T13:58:15.694Z,16.70
2019-02-19T14:17:02.774Z,13.33
2019-02-19T14:22:57.003Z,15.80
2019-02-19T14:25:52.540Z,13.07
2019-02-19T14:28:45.196Z,13.30
2019-02-19T14:31:36.580Z,15.73
2019-02-19T14:34:27.445Z,13.27
2019-02-19T14:37:32.067Z,12.63
2019-02-19T14:40:23.157Z,20.87
2019-02-19T14:43:10.579Z,15.53
2019-02-19T15:02:09.086Z,16.30
2019-02-19T15:05:00.276Z,12.93
2019-02-19T15:07:50.892Z,10.47
2019-02-19T15:11:18.039Z,19.53
2019-02-19T15:14:52.215Z,16.67
2019-02-19T15:18:11.389Z,16.73
2019-02-19T15:21:11.120Z,15.93
2019-02-19T15:37:20.205Z,16.00
2019-02-19T15:40:12.953Z,12.77
2019-02-19T15:43:23.889Z,17.63
2019-02-19T15:46:16.357Z,13.83
2019-02-19T15:49:07.750Z,15.57
2019-02-19T15:51:54.903Z,15.70
2019-02-19T15:55:04.513Z,14.73
2019-02-19T15:58:04.869Z,14.57
2019-02-19T16:00:43.269Z,14.80
2019-02-19T16:03:24.962Z,16.63
2019-02-19T16:06:17.287Z,17.10
2019-02-19T16:09:23.077Z,16.43
2019-02-19T16:12:07.224Z,15.20
2019-02-19T16:14:58.574Z,15.90
2019-02-19T16:17:49.996Z,14.53
2019-02-19T16:21:00.159Z,14.87
2019-02-19T16:23:40.031Z,14.07
2019-02-19T16:26:44.432Z,16.90
2019-02-19T16:29:35.730Z,15.10
2019-02-19T16:32:37.742Z,20.20
2019-02-19T16:35:28.773Z,17.63
2019-02-19T16:38:27.063Z,15.53
2019-02-19T16:41:18.022Z,23.03
2019-02-19T16:44:01.942Z,17.37
2019-02-19T16:57:48.293Z,15.43
2019-02-19T17:01:05.531Z,11.50
2019-02-19T17:03:46.562Z,14.67
2019-02-19T17:07:19.721Z,14.33
2019-02-19T17:10:37.696Z,18.53
2019-02-19T17:13:30.557Z,16.07
2019-02-19T17:16:17.898Z,17.63
2019-02-19T17:19:54.959Z,14.50
2019-02-19T17:23:05.981Z,19.80
2019-02-19T17:36:50.738Z,16.90
2019-02-19T17:39:43.231Z,20.97
2019-02-19T17:42:35.940Z,16.13
2019-02-19T17:45:37.223Z,19.43
2019-02-19T17:48:28.802Z,16.13
2019-02-19T17:52:04.415Z,19.23
2019-02-19T17:55:02.694Z,16.20
2019-02-19T17:57:55.712Z,17.77
2019-02-19T18:01:12.289Z,14.00
2019-02-19T18:04:11.051Z,16.63
2019-02-19T18:07:23.259Z,24.20
2019-02-19T18:10:30.942Z,23.23
2019-02-19T18:13:26.447Z,22.27
2019-02-19T18:16:25.310Z,21.37
2019-02-19T18:18:59.052Z,19.13
2019-02-19T18:21:32.563Z,19.20
2019-02-19T18:24:06.433Z,19.17
2019-02-19T18:26:40.675Z,19.33
2019-02-19T18:29:15.713Z,24.77
2019-02-19T18:31:49.701Z,21.33
2019-02-19T18:34:35.064Z,21.87
2019-02-19T18:37:26.534Z,23.30
2019-02-19T18:39:59.968Z,27.60
2019-02-19T18:42:34.022Z,20.23
2019-02-19T18:45:20.292Z,27.57
2019-02-19T18:48:11.953Z,23.70
2019-02-19T18:50:58.606Z,17.27
2019-02-19T18:53:31.580Z,21.27
2019-02-19T18:56:05.615Z,22.93
2019-02-19T19:28:02.121Z,21.10
2019-02-19T19:30:35.929Z,21.23
2019-02-19T19:33:09.642Z,28.40
2019-02-19T19:35:43.724Z,28.53
2019-02-19T19:38:17.292Z,24.33
2019-02-19T19:40:50.983Z,27.87
2019-02-19T19:43:24.537Z,26.70
2019-02-19T19:45:58.986Z,28.80
2019-02-19T19:48:33.584Z,23.17
2019-02-19T20:15:06.340Z,26.17
2019-02-19T20:40:19.998Z,28.00
2019-02-19T21:19:51.528Z,27.40
2019-02-19T21:22:43.259Z,28.00
2019-02-19T21:35:58.943Z,25.97
2019-02-19T21:38:32.827Z,26.10
2019-02-19T21:41:08.075Z,26.97
2019-02-19T21:43:56.508Z,30.67
